Schultzville, Pennsylvania
Current Conditions -  °F | °C
As of 3:54 PM on Thursday 20 Nov 2014 (Local Time) from KPTW Reporting Station
Clear Clear  
Wind Chill: 37°   Ceiling: Unl
Heat Index: 43°   Visibility: 10mi
Dew Point: 18°   Wind: 12mph
Humidity: 37%   Direction: 260°W
Pressure: 29.9"   Gusts: 17mph
Location:  40.3877°N, 75.5817°W
Report Text: KPTW 202054Z AUTO 26010G15KT 10SM CLR 06/M08 A2990 RMK AO2 SLP124 T00611078 55001
Loading
Personal Weather Stations






























Interactive Weather Map New forecast layout! Learn more

10-Day Weather Forecast

Advertisements
Track Severe Weather on mobile